Time;durP1;ratioP1;P1;durP2;ratioP2;P2;SDS_P1;SDS_P2;PMS_P1;PMS_P2;Temp;Humidity;BMP_temperature;BMP_pressure;BME280_temperature;BME280_humidity;BME280_pressure;Samples;Min_cycle;Max_cycle;Signal;HPM_P1;HPM_P2
2022/05/13 04:02:37;;;;;;;5.28;3.55;;;11.40;99.90;;;;;;4973948;23;20335;-67
2022/05/13 04:10:33;;;;;;;3.83;3.40;;;11.50;99.90;;;;;;4958256;28;20563;-67
2022/05/13 04:18:30;;;;;;;3.10;2.97;;;11.50;99.90;;;;;;4975287;28;20207;-67
2022/05/13 04:20:56;;;;;;;3.15;2.95;;;11.50;99.90;;;;;;4975076;28;20232;-67
2022/05/13 04:23:24;;;;;;;3.72;3.42;;;11.60;99.90;;;;;;4975330;28;20213;-67
2022/05/13 04:25:50;;;;;;;6.28;3.67;;;11.70;99.90;;;;;;4974073;28;20228;-67
2022/05/13 04:28:17;;;;;;;3.75;3.45;;;11.70;99.90;;;;;;4975159;28;20669;-68
2022/05/13 04:30:44;;;;;;;5.68;3.92;;;11.80;99.90;;;;;;4975074;28;20783;-68
2022/05/13 04:33:13;;;;;;;4.47;3.72;;;11.90;99.90;;;;;;4974771;28;20366;-68
2022/05/13 04:35:41;;;;;;;3.80;3.63;;;12.10;99.90;;;;;;4974989;28;20209;-68
2022/05/13 04:38:08;;;;;;;3.73;3.50;;;12.40;99.90;;;;;;4975120;28;20212;-68
2022/05/13 04:40:35;;;;;;;5.90;4.50;;;12.70;99.90;;;;;;4973668;28;20542;-70
2022/05/13 04:43:01;;;;;;;3.70;3.00;;;13.00;99.90;;;;;;4975594;28;21011;-68
2022/05/13 04:45:29;;;;;;;3.57;2.73;;;13.00;99.90;;;;;;4974939;28;20468;-68
2022/05/13 04:48:16;;;;;;;3.30;3.10;;;13.00;99.90;;;;;;4975137;28;20471;-68
2022/05/13 04:50:50;;;;;;;3.60;2.57;;;13.00;99.90;;;;;;4974077;28;20500;-67
2022/05/13 04:53:20;;;;;;;3.03;2.83;;;13.00;99.90;;;;;;4967099;28;20550;-67
2022/05/13 04:55:47;;;;;;;4.00;3.60;;;13.00;99.90;;;;;;4973700;28;20468;-68
2022/05/13 04:58:14;;;;;;;3.47;2.80;;;13.00;99.90;;;;;;4974740;28;20471;-68
2022/05/13 05:00:40;;;;;;;3.17;2.97;;;13.10;99.90;;;;;;4973764;28;20507;-67
2022/05/13 05:03:07;;;;;;;2.97;2.77;;;13.20;99.90;;;;;;4974837;28;20526;-68
2022/05/13 05:05:34;;;;;;;3.07;2.97;;;13.50;99.90;;;;;;4974141;28;20472;-68
2022/05/13 05:08:03;;;;;;;2.57;2.37;;;13.60;99.90;;;;;;4974517;28;20901;-67
2022/05/13 05:10:30;;;;;;;4.17;3.40;;;13.60;99.90;;;;;;4972453;28;20491;-67
2022/05/13 05:12:57;;;;;;;6.60;3.67;;;13.50;99.90;;;;;;4973943;28;20472;-68
2022/05/13 05:15:26;;;;;;;2.87;2.70;;;13.40;99.90;;;;;;4974367;28;20464;-67
2022/05/13 05:17:52;;;;;;;3.30;3.00;;;13.30;99.90;;;;;;4974255;28;20459;-67
2022/05/13 05:20:21;;;;;;;5.73;3.57;;;13.20;99.90;;;;;;4973381;28;20610;-67
2022/05/13 05:22:48;;;;;;;2.90;2.80;;;13.20;99.90;;;;;;4973896;28;20463;-66
2022/05/13 05:25:19;;;;;;;6.93;3.37;;;13.20;99.90;;;;;;4970833;28;20468;-66
2022/05/13 05:27:46;;;;;;;3.03;2.83;;;13.20;99.90;;;;;;4973886;28;20494;-67
2022/05/13 05:30:14;;;;;;;3.43;3.23;;;13.20;99.90;;;;;;4973391;28;20507;-66
2022/05/13 05:32:42;;;;;;;5.13;3.03;;;13.30;99.90;;;;;;4973594;28;20508;-68
2022/05/13 05:35:12;;;;;;;3.50;3.20;;;13.30;99.90;;;;;;4973644;28;20518;-67
2022/05/13 05:37:38;;;;;;;4.27;2.93;;;13.30;99.90;;;;;;4973795;28;20464;-67
2022/05/13 05:40:07;;;;;;;3.00;3.00;;;13.30;99.90;;;;;;4972481;28;20869;-67
2022/05/13 05:42:37;;;;;;;7.83;4.00;;;13.40;99.90;;;;;;4974031;28;20468;-68
2022/05/13 05:45:06;;;;;;;6.93;3.43;;;13.40;99.90;;;;;;4973264;28;20464;-67
2022/05/13 05:47:33;;;;;;;7.60;4.30;;;13.50;99.90;;;;;;4973475;28;20904;-67
2022/05/13 05:50:01;;;;;;;3.27;3.07;;;13.50;99.90;;;;;;4972823;28;20514;-67
2022/05/13 05:52:28;;;;;;;3.73;3.57;;;13.60;99.90;;;;;;4973309;28;20491;-67
2022/05/13 05:57:40;;;;;;;3.70;3.40;;;13.70;99.90;;;;;;4973753;28;20533;-67
2022/05/13 06:00:10;;;;;;;3.70;3.43;;;13.80;99.90;;;;;;4972744;28;20468;-67
2022/05/13 06:02:36;;;;;;;5.53;3.60;;;13.70;99.90;;;;;;4971280;28;20475;-67
2022/05/13 06:05:03;;;;;;;6.07;3.50;;;13.80;99.90;;;;;;4973190;28;20460;-66
2022/05/13 06:07:30;;;;;;;3.93;3.60;;;13.80;99.90;;;;;;4973330;28;21034;-67
2022/05/13 06:09:56;;;;;;;4.77;3.30;;;13.90;99.90;;;;;;4972382;28;20463;-68
2022/05/13 06:12:23;;;;;;;3.73;3.33;;;14.00;99.90;;;;;;4973245;28;20488;-69
2022/05/13 06:14:52;;;;;;;3.10;2.90;;;14.20;99.90;;;;;;4973879;28;20499;-68
2022/05/13 06:17:19;;;;;;;3.87;3.00;;;14.50;99.90;;;;;;4975584;28;20867;-68
2022/05/13 06:19:46;;;;;;;3.27;2.70;;;14.70;99.90;;;;;;4973579;28;20464;-68
2022/05/13 06:22:12;;;;;;;3.33;2.47;;;15.00;99.90;;;;;;4974166;28;20543;-69
2022/05/13 06:24:39;;;;;;;4.47;3.47;;;15.10;99.90;;;;;;4973102;28;20518;-69
2022/05/13 06:27:07;;;;;;;3.10;2.90;;;15.20;99.90;;;;;;4974288;28;20571;-69
2022/05/13 06:29:35;;;;;;;9.33;2.80;;;15.20;99.90;;;;;;4973031;28;20831;-68
2022/05/13 06:32:03;;;;;;;3.47;3.17;;;15.10;99.90;;;;;;4974948;28;20491;-69
2022/05/13 06:34:29;;;;;;;2.77;2.47;;;15.20;99.90;;;;;;4974202;28;20534;-69
2022/05/13 06:36:56;;;;;;;3.00;2.70;;;15.20;99.90;;;;;;4973444;28;20464;-69
2022/05/13 06:39:23;;;;;;;2.53;2.33;;;15.20;99.90;;;;;;4971690;28;20467;-69
2022/05/13 06:41:49;;;;;;;4.00;2.63;;;15.30;99.90;;;;;;4972163;28;20996;-69
2022/05/13 06:44:18;;;;;;;2.90;2.80;;;15.30;99.90;;;;;;4972469;28;20503;-69
2022/05/13 06:46:45;;;;;;;3.80;2.70;;;15.30;99.90;;;;;;4972783;28;20928;-69
2022/05/13 06:49:14;;;;;;;3.83;3.63;;;15.30;99.90;;;;;;4972612;28;20526;-69
2022/05/13 06:51:41;;;;;;;2.27;2.17;;;15.30;99.90;;;;;;4972049;28;20494;-69
2022/05/13 06:54:09;;;;;;;3.60;2.53;;;15.40;99.90;;;;;;4967928;28;20463;-69
2022/05/13 06:56:37;;;;;;;3.50;2.90;;;15.30;99.90;;;;;;4972149;28;20495;-69
2022/05/13 06:59:04;;;;;;;3.10;2.30;;;15.40;99.90;;;;;;4972456;28;20479;-69
2022/05/13 07:01:31;;;;;;;3.50;2.80;;;15.70;99.90;;;;;;4971650;28;20565;-69
2022/05/13 07:03:58;;;;;;;2.80;2.70;;;15.90;99.90;;;;;;4972678;28;20471;-69
2022/05/13 07:06:26;;;;;;;2.70;2.50;;;16.00;99.90;;;;;;4972409;28;20464;-69
2022/05/13 07:08:52;;;;;;;3.10;2.27;;;15.90;99.90;;;;;;4971934;28;20523;-69
2022/05/13 07:11:20;;;;;;;4.13;2.90;;;15.70;99.90;;;;;;4971492;28;20633;-69
2022/05/13 07:13:47;;;;;;;2.23;2.13;;;15.60;99.90;;;;;;4972399;28;20474;-69
2022/05/13 07:16:14;;;;;;;3.40;2.50;;;15.50;99.90;;;;;;4972522;28;20787;-69
2022/05/13 07:18:42;;;;;;;4.50;2.57;;;15.50;99.90;;;;;;4971859;28;20916;-69
2022/05/13 07:21:09;;;;;;;3.27;2.03;;;15.60;99.90;;;;;;4971353;28;20902;-69
2022/05/13 07:23:37;;;;;;;5.60;2.77;;;15.50;99.90;;;;;;4971319;28;20467;-69
2022/05/13 07:26:03;;;;;;;5.80;2.93;;;15.40;99.90;;;;;;4969011;28;20459;-69
2022/05/13 07:28:30;;;;;;;2.43;2.23;;;15.20;99.90;;;;;;4972153;28;20540;-69
2022/05/13 07:30:57;;;;;;;4.00;3.50;;;15.00;99.90;;;;;;4971545;28;20484;-69
2022/05/13 07:33:24;;;;;;;2.30;2.20;;;15.00;99.90;;;;;;4972143;28;20514;-69
2022/05/13 07:35:51;;;;;;;4.07;2.67;;;15.00;99.90;;;;;;4971266;28;20945;-69
2022/05/13 07:38:19;;;;;;;2.50;2.40;;;15.10;99.90;;;;;;4971407;28;20898;-69
2022/05/13 07:43:31;;;;;;;2.77;2.33;;;15.20;99.90;;;;;;4972638;28;20507;-68
2022/05/13 07:45:58;;;;;;;4.13;2.00;;;15.40;99.90;;;;;;4973131;28;20467;-68
2022/05/13 07:48:25;;;;;;;3.43;2.30;;;15.50;99.90;;;;;;4972721;28;20542;-68
2022/05/13 07:50:52;;;;;;;2.67;2.47;;;15.50;99.90;;;;;;4972517;28;20492;-68
2022/05/13 07:53:19;;;;;;;5.70;2.90;;;15.50;99.90;;;;;;4972822;28;20555;-68
2022/05/13 07:55:48;;;;;;;5.10;2.97;;;15.50;99.90;;;;;;4971244;28;20514;-68
2022/05/13 07:58:16;;;;;;;3.30;3.07;;;15.40;99.90;;;;;;4971775;28;20511;-68
2022/05/13 08:00:43;;;;;;;3.10;2.87;;;15.40;99.90;;;;;;4970918;28;20500;-68
2022/05/13 08:03:12;;;;;;;2.70;2.50;;;15.40;99.90;;;;;;4971751;28;20503;-68
2022/05/13 08:05:42;;;;;;;2.87;2.77;;;15.30;99.90;;;;;;4971346;28;20967;-68
2022/05/13 08:08:11;;;;;;;5.83;3.20;;;15.20;99.90;;;;;;4971925;28;20586;-68
2022/05/13 08:10:40;;;;;;;3.57;3.37;;;15.10;99.90;;;;;;4970028;28;20492;-68
2022/05/13 08:13:08;;;;;;;8.13;4.10;;;15.00;99.90;;;;;;4971730;28;20650;-68
2022/05/13 08:15:35;;;;;;;3.50;3.20;;;15.00;99.90;;;;;;4963962;28;20578;-68
2022/05/13 08:18:02;;;;;;;4.67;3.83;;;14.90;99.90;;;;;;4971129;28;20452;-68
2022/05/13 08:20:29;;;;;;;4.50;3.63;;;14.80;99.90;;;;;;4970920;28;20539;-68
2022/05/13 08:22:56;;;;;;;4.03;3.63;;;14.80;99.90;;;;;;4971635;28;20694;-68
2022/05/13 08:25:23;;;;;;;3.73;3.40;;;14.70;99.90;;;;;;4970831;28;20467;-68
2022/05/13 08:27:50;;;;;;;4.43;4.13;;;14.70;99.90;;;;;;4971662;28;20566;-68
2022/05/13 08:30:18;;;;;;;7.17;3.40;;;14.70;99.90;;;;;;4970644;28;20574;-68
2022/05/13 08:32:45;;;;;;;12.00;3.57;;;14.80;99.90;;;;;;4971247;28;21049;-68
2022/05/13 08:35:13;;;;;;;7.87;3.50;;;14.80;99.90;;;;;;4971188;28;20501;-68
2022/05/13 08:37:41;;;;;;;4.03;3.50;;;14.80;99.90;;;;;;4971184;28;21057;-68
2022/05/13 08:40:14;;;;;;;3.00;2.70;;;14.80;99.90;;;;;;4970156;28;20500;-68
2022/05/13 08:42:47;;;;;;;3.43;3.17;;;14.90;99.90;;;;;;4971407;28;21053;-68
2022/05/13 08:45:16;;;;;;;7.27;3.90;;;14.90;99.90;;;;;;4971292;28;20482;-68
2022/05/13 08:47:50;;;;;;;4.47;2.97;;;14.90;99.90;;;;;;4974164;28;20577;-69
2022/05/13 08:50:24;;;;;;;3.40;3.17;;;15.00;99.90;;;;;;4973980;28;20462;-68
2022/05/13 08:53:08;;;;;;;3.50;3.20;;;15.10;99.90;;;;;;4970295;28;20467;-69
2022/05/13 08:55:42;;;;;;;8.40;3.33;;;15.10;99.90;;;;;;4973438;28;20890;-68
2022/05/13 08:58:13;;;;;;;3.70;3.50;;;15.30;99.90;;;;;;4974603;28;20963;-69
2022/05/13 09:00:44;;;;;;;3.83;3.53;;;15.40;99.90;;;;;;4973905;28;20495;-69
2022/05/13 09:03:28;;;;;;;3.90;3.27;;;15.60;99.90;;;;;;4974547;28;20517;-68
2022/05/13 09:06:01;;;;;;;3.83;3.37;;;15.80;99.90;;;;;;4974132;28;21015;-69
2022/05/13 09:08:28;;;;;;;4.73;3.10;;;15.90;99.90;;;;;;4974607;28;20589;-69
2022/05/13 09:11:14;;;;;;;4.07;3.30;;;15.90;99.90;;;;;;4973141;28;20522;-69
2022/05/13 09:13:59;;;;;;;4.03;3.57;;;15.90;99.90;;;;;;4975043;28;20468;-69
2022/05/13 09:16:38;;;;;;;4.27;3.70;;;15.90;99.90;;;;;;4974903;28;21003;-68
2022/05/13 09:19:06;;;;;;;3.77;3.57;;;15.90;99.90;;;;;;4974395;28;20530;-69
2022/05/13 09:21:34;;;;;;;3.60;3.37;;;15.90;99.90;;;;;;4973529;28;20575;-69
2022/05/13 09:24:01;;;;;;;6.57;3.70;;;15.90;99.90;;;;;;4974497;28;20650;-68
2022/05/13 09:26:28;;;;;;;5.77;3.30;;;15.90;99.90;;;;;;4974198;28;20515;-69
2022/05/13 09:29:08;;;;;;;3.37;2.80;;;16.10;99.90;;;;;;4973531;28;21083;-67
2022/05/13 09:31:38;;;;;;;3.37;3.07;;;16.40;99.90;;;;;;4973668;28;20497;-68
2022/05/13 09:34:20;;;;;;;7.93;3.37;;;16.40;99.90;;;;;;4973746;28;20836;-68
2022/05/13 09:36:50;;;;;;;5.80;3.53;;;16.50;99.90;;;;;;4973867;28;20463;-67
2022/05/13 09:39:20;;;;;;;3.67;3.43;;;16.50;99.90;;;;;;4972818;28;20460;-68
2022/05/13 09:41:48;;;;;;;5.20;3.20;;;16.70;99.90;;;;;;4970546;28;20491;-68
2022/05/13 09:44:20;;;;;;;3.80;3.60;;;16.70;99.90;;;;;;4973662;28;20864;-68
2022/05/13 09:46:50;;;;;;;4.20;3.90;;;16.80;99.90;;;;;;4973985;28;20800;-68
2022/05/13 09:49:26;;;;;;;7.77;3.90;;;16.90;99.90;;;;;;4973455;28;20488;-68
2022/05/13 09:51:56;;;;;;;3.87;3.63;;;17.00;99.90;;;;;;4972937;28;20550;-68
2022/05/13 09:54:27;;;;;;;6.23;3.63;;;17.20;99.90;;;;;;4973004;28;20463;-68
2022/05/13 09:57:04;;;;;;;3.60;3.27;;;17.20;99.90;;;;;;4973950;28;20824;-68
2022/05/13 09:59:35;;;;;;;3.70;3.40;;;17.20;99.90;;;;;;4973531;28;20563;-67
2022/05/13 10:02:22;;;;;;;5.63;4.07;;;17.40;99.90;;;;;;4973663;28;20491;-68
2022/05/13 10:04:55;;;;;;;6.70;4.73;;;17.50;99.90;;;;;;4973722;28;20467;-68
2022/05/13 10:07:24;;;;;;;7.10;3.87;;;17.50;99.90;;;;;;4974083;28;20472;-68
2022/05/13 10:15:31;;;;;;;4.53;3.70;;;17.50;99.90;;;;;;4965915;28;20615;-70
2022/05/13 10:18:03;;;;;;;6.03;4.00;;;17.60;99.90;;;;;;4973938;28;20491;-71
2022/05/13 10:20:37;;;;;;;6.40;3.77;;;17.70;99.90;;;;;;4972866;28;21016;-71
2022/05/13 10:23:11;;;;;;;4.47;3.13;;;17.80;99.90;;;;;;4973465;28;20583;-73
2022/05/13 10:25:49;;;;;;;7.43;4.10;;;18.00;99.90;;;;;;4973355;28;20510;-70
2022/05/13 10:28:19;;;;;;;4.60;3.83;;;18.20;99.90;;;;;;4973334;28;20995;-70
2022/05/13 10:30:50;;;;;;;3.20;2.60;;;18.20;99.90;;;;;;4972941;28;20468;-70
2022/05/13 10:33:22;;;;;;;2.73;2.23;;;18.30;99.90;;;;;;4973174;28;20484;-71
2022/05/13 10:35:56;;;;;;;2.80;2.57;;;18.50;99.90;;;;;;4973712;28;20514;-72
2022/05/13 10:38:29;;;;;;;3.53;2.67;;;18.50;99.90;;;;;;4973420;28;20655;-70
2022/05/13 10:41:05;;;;;;;3.80;2.47;;;18.50;99.90;;;;;;4972234;28;20467;-69
2022/05/13 10:43:39;;;;;;;5.23;2.67;;;18.40;99.90;;;;;;4973081;28;20487;-69
2022/05/13 10:46:22;;;;;;;2.77;2.57;;;18.20;99.90;;;;;;4973013;28;20567;-70
2022/05/13 10:48:52;;;;;;;3.10;2.80;;;17.80;99.90;;;;;;4973231;28;20518;-70
2022/05/13 10:51:24;;;;;;;3.23;2.47;;;17.50;99.90;;;;;;4972636;28;20464;-70
2022/05/13 10:54:15;;;;;;;2.33;2.13;;;17.30;99.90;;;;;;4972700;28;20491;-71
2022/05/13 10:56:51;;;;;;;3.23;2.67;;;17.00;99.90;;;;;;4972549;28;20472;-73
2022/05/13 10:59:34;;;;;;;6.83;2.73;;;16.80;99.90;;;;;;4973186;28;20510;-70
2022/05/13 11:02:18;;;;;;;7.60;3.57;;;16.70;99.90;;;;;;4972589;28;20463;-71
2022/05/13 11:04:51;;;;;;;6.63;2.53;;;16.60;99.90;;;;;;4964277;28;20475;-70
2022/05/13 11:07:29;;;;;;;3.90;2.30;;;16.60;99.90;;;;;;4975476;28;20596;-70
2022/05/13 11:10:03;;;;;;;2.63;2.37;;;16.50;99.90;;;;;;4972195;28;20526;-71
2022/05/13 11:12:36;;;;;;;2.47;2.27;;;16.50;99.90;;;;;;4972573;28;20467;-70
2022/05/13 11:15:15;;;;;;;3.20;2.90;;;16.40;99.90;;;;;;4972780;28;20467;-70
2022/05/13 11:17:56;;;;;;;3.57;2.80;;;16.30;99.90;;;;;;4974006;28;20904;-70
2022/05/13 11:20:31;;;;;;;7.80;3.50;;;16.30;99.90;;;;;;4972247;28;20467;-70
2022/05/13 11:23:13;;;;;;;4.47;2.73;;;16.30;99.90;;;;;;4972313;28;20487;-71
2022/05/13 11:25:54;;;;;;;6.13;2.83;;;16.40;99.90;;;;;;4971798;28;20510;-71
2022/05/13 11:29:03;;;;;;;5.70;2.87;;;16.60;99.90;;;;;;4972698;28;20484;-70
2022/05/13 11:31:57;;;;;;;2.73;2.50;;;16.80;99.90;;;;;;4972429;28;20886;-70
2022/05/13 11:34:38;;;;;;;2.73;2.53;;;16.90;99.90;;;;;;4972627;28;20558;-71
2022/05/13 11:37:08;;;;;;;3.07;2.83;;;17.20;99.90;;;;;;4972425;28;20790;-70
2022/05/13 11:39:54;;;;;;;3.67;3.10;;;17.40;99.90;;;;;;4971343;28;20506;-70
2022/05/13 11:43:18;;;;;;;2.70;2.60;;;17.40;99.90;;;;;;4967290;28;20460;-70
2022/05/13 11:45:35;;;;;;;3.13;2.90;;;17.50;99.90;;;;;;4971923;28;20527;-70
2022/05/13 11:48:17;;;;;;;4.47;3.17;;;17.70;99.90;;;;;;4972157;28;21055;-70
2022/05/13 11:50:44;;;;;;;3.90;2.60;;;17.80;99.90;;;;;;4971531;28;20472;-70
2022/05/13 11:53:10;;;;;;;3.23;3.07;;;18.00;99.90;;;;;;4972568;28;20494;-71
2022/05/13 11:56:13;;;;;;;3.00;2.80;;;18.20;99.90;;;;;;4971355;28;20468;-70
2022/05/13 11:58:53;;;;;;;2.53;2.33;;;18.40;99.90;;;;;;4972316;28;20455;-70
2022/05/13 12:01:57;;;;;;;2.40;2.30;;;18.40;99.90;;;;;;4971678;28;20775;-70
2022/05/13 12:04:29;;;;;;;2.60;2.40;;;18.50;99.90;;;;;;4971833;28;20487;-70
2022/05/13 12:06:58;;;;;;;3.17;2.30;;;18.70;99.90;;;;;;4972284;28;20514;-70
2022/05/13 12:09:30;;;;;;;2.47;2.30;;;18.70;99.90;;;;;;4971436;28;20564;-71
2022/05/13 12:12:10;;;;;;;5.53;2.00;;;18.70;99.90;;;;;;4972705;28;20535;-71
2022/05/13 12:14:49;;;;;;;2.33;2.13;;;18.60;99.90;;;;;;4957152;28;21041;-70
2022/05/13 12:17:21;;;;;;;4.60;2.40;;;18.00;99.90;;;;;;4972593;28;20858;-71
2022/05/13 12:19:58;;;;;;;3.40;2.87;;;17.20;99.90;;;;;;4972341;28;20884;-71
2022/05/13 12:22:39;;;;;;;3.63;3.27;;;16.70;99.90;;;;;;4975692;28;20630;-71
2022/05/13 12:25:09;;;;;;;3.63;3.43;;;16.40;99.90;;;;;;4977393;28;20561;-71
2022/05/13 12:27:39;;;;;;;4.37;3.37;;;16.10;99.90;;;;;;4978714;28;20467;-71
2022/05/13 12:30:30;;;;;;;3.83;3.53;;;16.10;99.90;;;;;;4978022;28;20487;-72
2022/05/13 12:32:58;;;;;;;3.77;3.40;;;16.30;99.90;;;;;;4977646;28;20995;-70
2022/05/13 12:38:20;;;;;;;3.90;3.60;;;16.40;99.90;;;;;;4975086;28;20446;-67
2022/05/13 12:40:59;;;;;;;4.20;3.90;;;16.50;99.90;;;;;;4973669;28;20474;-68
2022/05/13 12:43:47;;;;;;;5.20;4.80;;;16.60;99.90;;;;;;4974887;28;21059;-68
2022/05/13 12:46:17;;;;;;;5.00;4.53;;;16.70;99.90;;;;;;4975047;28;20530;-67
2022/05/13 12:49:03;;;;;;;5.83;3.80;;;16.90;99.90;;;;;;4974638;28;20487;-68
2022/05/13 12:51:41;;;;;;;4.07;3.70;;;16.90;99.90;;;;;;4973852;28;20558;-69
2022/05/13 12:54:10;;;;;;;4.50;3.53;;;17.00;99.90;;;;;;4974493;28;20475;-67
2022/05/13 12:56:40;;;;;;;4.27;3.47;;;17.10;99.90;;;;;;4974751;28;20460;-69
2022/05/13 12:59:12;;;;;;;4.03;2.80;;;17.30;99.90;;;;;;4974708;28;20955;-67
2022/05/13 13:01:43;;;;;;;2.60;2.40;;;17.40;99.90;;;;;;4974366;28;20463;-67
2022/05/13 13:04:12;;;;;;;2.70;2.50;;;17.50;99.90;;;;;;4965728;28;21024;-67
2022/05/13 13:06:41;;;;;;;2.67;2.50;;;17.70;99.90;;;;;;4974130;28;20782;-67
2022/05/13 13:09:22;;;;;;;2.20;2.20;;;18.00;99.90;;;;;;4974057;28;20549;-67
2022/05/13 13:12:05;;;;;;;2.23;2.07;;;18.00;99.90;;;;;;4973796;28;20954;-67
2022/05/13 13:14:49;;;;;;;7.37;3.20;;;18.10;99.90;;;;;;4974352;28;20491;-67
2022/05/13 13:17:28;;;;;;;3.33;2.33;;;18.20;99.90;;;;;;4974437;28;20468;-68
2022/05/13 13:19:58;;;;;;;3.13;2.13;;;18.30;99.90;;;;;;4973540;28;20460;-68
2022/05/13 13:22:26;;;;;;;2.97;2.30;;;18.20;99.90;;;;;;4974237;28;20893;-67
2022/05/13 13:24:53;;;;;;;2.70;2.50;;;18.10;99.90;;;;;;4973619;28;21053;-67
2022/05/13 13:27:24;;;;;;;3.03;2.73;;;17.80;99.90;;;;;;4974374;28;20471;-67
2022/05/13 13:29:52;;;;;;;5.10;2.87;;;17.70;99.90;;;;;;4973673;28;20574;-67
2022/05/13 13:32:21;;;;;;;3.87;3.20;;;17.70;99.90;;;;;;4974335;28;20470;-67
2022/05/13 13:34:53;;;;;;;5.23;3.80;;;17.60;99.90;;;;;;4974263;28;20530;-67
2022/05/13 13:37:23;;;;;;;11.63;5.70;;;17.50;99.90;;;;;;4974585;28;20471;-67
2022/05/13 13:39:50;;;;;;;23.83;8.83;;;17.40;99.90;;;;;;4973051;28;21305;-67
2022/05/13 13:42:19;;;;;;;2.70;2.50;;;17.40;99.90;;;;;;4968782;28;20471;-67
2022/05/13 13:44:47;;;;;;;2.73;2.53;;;17.50;99.90;;;;;;4973806;28;20539;-68
2022/05/13 13:47:28;;;;;;;2.70;2.60;;;17.50;99.90;;;;;;4973974;28;21185;-67
2022/05/13 13:49:57;;;;;;;4.30;2.67;;;17.60;99.90;;;;;;4972987;28;20495;-68
2022/05/13 13:52:27;;;;;;;2.53;2.20;;;17.60;99.90;;;;;;4973642;28;20464;-68
2022/05/13 13:54:58;;;;;;;1.93;1.73;;;17.60;99.90;;;;;;4973491;28;20468;-67
2022/05/13 13:57:41;;;;;;;4.00;2.63;;;17.60;99.90;;;;;;4973965;28;20484;-67
2022/05/13 14:00:11;;;;;;;2.60;2.00;;;17.80;99.90;;;;;;4973258;28;20467;-67
2022/05/13 14:02:46;;;;;;;3.33;1.80;;;17.90;99.90;;;;;;4973869;28;20463;-68
2022/05/13 14:05:17;;;;;;;2.33;2.03;;;17.90;99.90;;;;;;4973664;28;20467;-67
2022/05/13 14:07:46;;;;;;;2.00;1.90;;;17.90;99.90;;;;;;4973935;28;20549;-67
2022/05/13 14:10:16;;;;;;;1.70;1.60;;;18.00;99.90;;;;;;4971939;28;20488;-67
2022/05/13 14:12:43;;;;;;;1.87;1.87;;;18.10;99.90;;;;;;4973658;28;20550;-67
2022/05/13 14:15:17;;;;;;;1.83;1.73;;;18.10;99.90;;;;;;4958933;28;20467;-67
2022/05/13 14:17:50;;;;;;;2.90;2.57;;;18.10;99.90;;;;;;4973054;28;20470;-67
2022/05/13 14:20:19;;;;;;;1.80;1.70;;;18.20;99.90;;;;;;4972659;28;20468;-67
2022/05/13 14:23:06;;;;;;;3.40;1.90;;;18.30;99.90;;;;;;4973003;28;20480;-67
2022/05/13 14:25:36;;;;;;;1.90;1.63;;;18.40;99.90;;;;;;4972472;28;20467;-71
2022/05/13 14:28:05;;;;;;;3.00;1.53;;;18.30;99.90;;;;;;4973483;28;20463;-67
2022/05/13 14:30:33;;;;;;;2.80;2.60;;;18.30;99.90;;;;;;4973975;28;20496;-67
2022/05/13 14:33:02;;;;;;;1.73;1.63;;;18.20;99.90;;;;;;4974940;28;20553;-67
2022/05/13 14:35:31;;;;;;;2.63;1.90;;;18.20;99.90;;;;;;4973195;28;20762;-67
2022/05/13 14:38:00;;;;;;;2.67;2.53;;;18.30;99.90;;;;;;4973918;28;20797;-67
2022/05/13 14:40:30;;;;;;;2.73;2.63;;;18.30;99.90;;;;;;4972098;28;20518;-67
2022/05/13 14:43:01;;;;;;;2.90;2.80;;;18.30;99.90;;;;;;4980945;28;20476;-67
2022/05/13 14:45:33;;;;;;;3.00;2.80;;;18.20;99.90;;;;;;4986605;28;20460;-68
2022/05/13 14:48:15;;;;;;;1.47;1.43;;;18.20;99.90;;;;;;4987032;28;20464;-67
2022/05/13 14:50:44;;;;;;;2.33;1.87;;;18.30;99.90;;;;;;4979915;28;20495;-67
2022/05/13 14:53:13;;;;;;;3.70;2.93;;;18.40;99.90;;;;;;4975500;28;20506;-67
2022/05/13 14:55:47;;;;;;;2.10;1.90;;;18.30;99.90;;;;;;4972061;28;20857;-67
2022/05/13 14:58:23;;;;;;;5.23;3.07;;;18.30;99.90;;;;;;4972603;28;20840;-66
2022/05/13 15:00:51;;;;;;;3.10;2.53;;;18.30;99.90;;;;;;4972326;28;20467;-67
2022/05/13 15:03:27;;;;;;;2.17;2.07;;;18.20;99.90;;;;;;4961679;28;20577;-67
2022/05/13 15:05:54;;;;;;;2.17;2.17;;;18.20;99.90;;;;;;4972358;28;20471;-67
2022/05/13 15:08:43;;;;;;;2.20;2.10;;;18.10;99.90;;;;;;4972213;28;20483;-67
2022/05/13 15:11:11;;;;;;;2.70;2.50;;;18.00;99.90;;;;;;4971504;28;20487;-67
2022/05/13 15:13:37;;;;;;;4.33;3.20;;;18.00;99.90;;;;;;4971891;28;20502;-67
2022/05/13 15:16:05;;;;;;;2.87;2.30;;;17.90;99.90;;;;;;4972381;28;20471;-67
2022/05/13 15:18:36;;;;;;;1.93;1.77;;;17.80;99.90;;;;;;4972309;28;20463;-67
2022/05/13 15:21:03;;;;;;;1.87;1.73;;;17.70;99.90;;;;;;4971609;28;20485;-67
2022/05/13 15:23:30;;;;;;;2.50;2.13;;;17.60;99.90;;;;;;4971585;28;20490;-67
2022/05/13 15:25:57;;;;;;;4.00;1.83;;;17.50;99.90;;;;;;4972090;28;20671;-66
2022/05/13 15:28:24;;;;;;;2.20;2.10;;;17.40;99.90;;;;;;4972234;28;20522;-67
2022/05/13 15:30:53;;;;;;;5.67;1.70;;;17.50;99.90;;;;;;4971359;28;20522;-67
2022/05/13 15:33:20;;;;;;;3.57;1.13;;;17.50;99.90;;;;;;4971807;28;20488;-67
2022/05/13 15:35:48;;;;;;;2.83;2.63;;;17.50;99.90;;;;;;4971994;28;20464;-67
2022/05/13 15:38:15;;;;;;;3.90;1.93;;;17.60;99.90;;;;;;4972091;28;20467;-66
2022/05/13 15:40:42;;;;;;;1.50;1.40;;;17.70;99.90;;;;;;4970224;28;20511;-67
2022/05/13 15:43:09;;;;;;;1.77;1.67;;;17.80;99.90;;;;;;4966724;28;20484;-66
2022/05/13 15:45:40;;;;;;;4.60;1.63;;;17.90;99.90;;;;;;4971723;28;20551;-66
2022/05/13 15:48:09;;;;;;;2.73;1.60;;;17.80;99.90;;;;;;4972421;28;20534;-67
2022/05/13 15:53:21;;;;;;;3.60;1.20;;;17.90;99.90;;;;;;4971797;28;20467;-67
2022/05/13 15:55:52;;;;;;;1.57;1.47;;;17.80;99.90;;;;;;4972427;28;20468;-67
2022/05/13 15:58:24;;;;;;;1.37;1.37;;;17.70;99.90;;;;;;4975659;28;20467;-67
2022/05/13 16:00:51;;;;;;;1.83;1.30;;;17.70;99.90;;;;;;4975067;28;20951;-67
2022/05/13 16:03:18;;;;;;;2.00;1.37;;;17.60;99.90;;;;;;4975636;28;20554;-67
2022/05/13 16:05:44;;;;;;;1.37;1.30;;;17.60;99.90;;;;;;4975586;28;20464;-67
2022/05/13 16:08:11;;;;;;;1.77;1.50;;;17.70;99.90;;;;;;4975404;28;20468;-67
2022/05/13 16:10:40;;;;;;;4.07;1.93;;;17.70;99.90;;;;;;4974161;28;20574;-67
2022/05/13 16:13:13;;;;;;;1.77;1.43;;;17.80;99.90;;;;;;4997586;23;20796;-69
2022/05/13 16:15:42;;;;;;;2.20;1.67;;;17.70;99.90;;;;;;4975355;28;20467;-68
2022/05/13 16:18:14;;;;;;;1.57;1.23;;;17.70;99.90;;;;;;4975096;28;20467;-68
2022/05/13 16:20:42;;;;;;;2.20;1.30;;;17.70;99.90;;;;;;4974431;28;20459;-68
2022/05/13 16:23:11;;;;;;;3.03;1.40;;;17.70;99.90;;;;;;4974732;28;20550;-69
2022/05/13 16:25:39;;;;;;;4.93;1.90;;;17.70;99.90;;;;;;4974204;28;20811;-69
2022/05/13 16:28:07;;;;;;;2.10;1.53;;;17.90;99.90;;;;;;4975332;28;20472;-69
2022/05/13 16:30:34;;;;;;;1.60;1.50;;;18.00;99.90;;;;;;4974069;28;20483;-68
2022/05/13 16:33:01;;;;;;;2.97;1.10;;;18.10;99.90;;;;;;4974654;28;20969;-69
2022/05/13 16:35:29;;;;;;;2.37;1.20;;;18.10;99.90;;;;;;4974950;28;20518;-69
2022/05/13 16:37:56;;;;;;;2.73;1.67;;;18.10;99.90;;;;;;4974818;28;20501;-69
2022/05/13 16:40:25;;;;;;;1.70;1.70;;;18.10;99.90;;;;;;4973316;28;20475;-69
2022/05/13 16:42:53;;;;;;;1.80;1.50;;;18.00;99.90;;;;;;4975033;28;20550;-69
2022/05/13 16:45:21;;;;;;;2.20;2.10;;;17.90;99.90;;;;;;4974709;28;20963;-69
2022/05/13 16:47:50;;;;;;;1.70;1.70;;;17.90;99.90;;;;;;4974752;28;20464;-68
2022/05/13 16:50:19;;;;;;;3.23;1.50;;;17.80;99.90;;;;;;4974012;28;20570;-68
2022/05/13 16:52:46;;;;;;;1.37;1.37;;;17.80;99.90;;;;;;4974376;28;20478;-69
2022/05/13 16:55:15;;;;;;;1.73;1.30;;;17.80;99.90;;;;;;4973766;28;20511;-69
2022/05/13 16:57:42;;;;;;;3.93;1.20;;;17.70;99.90;;;;;;4974645;28;20966;-68
2022/05/13 17:00:14;;;;;;;4.67;1.60;;;17.70;99.90;;;;;;4974179;28;20550;-69
2022/05/13 17:02:41;;;;;;;1.67;1.40;;;17.70;99.90;;;;;;4973591;28;20482;-68
2022/05/13 17:05:09;;;;;;;1.63;1.53;;;17.70;99.90;;;;;;4969654;28;20483;-69
2022/05/13 17:07:36;;;;;;;1.43;1.03;;;17.80;99.90;;;;;;4973491;28;20467;-69
2022/05/13 17:18:17;;;;;;;1.80;1.40;;;18.10;99.90;;;;;;4974372;28;20896;-69
2022/05/13 17:20:43;;;;;;;1.57;1.47;;;18.10;99.90;;;;;;4973886;28;20547;-69
2022/05/13 17:23:10;;;;;;;3.30;1.33;;;18.00;99.90;;;;;;4973897;28;20520;-69
2022/05/13 17:25:37;;;;;;;1.67;1.60;;;17.90;99.90;;;;;;4972929;28;20463;-68
2022/05/13 17:28:08;;;;;;;3.90;2.23;;;17.90;99.90;;;;;;4973646;28;21015;-69
2022/05/13 17:30:38;;;;;;;3.00;1.57;;;17.80;99.90;;;;;;4972965;28;20492;-69
2022/05/13 17:33:05;;;;;;;1.60;1.60;;;17.70;99.90;;;;;;4973987;28;20512;-69
2022/05/13 17:35:32;;;;;;;2.83;1.40;;;17.60;99.90;;;;;;4973747;28;20909;-69
2022/05/13 17:38:01;;;;;;;3.03;1.37;;;17.50;99.90;;;;;;4974100;28;20866;-69
2022/05/13 17:40:34;;;;;;;2.43;1.83;;;17.50;99.90;;;;;;4972416;28;20463;-69
2022/05/13 17:43:01;;;;;;;3.30;1.70;;;17.50;99.90;;;;;;4973393;28;20496;-68